sensor_id;sensor_type;location;lat;lon;timestamp;P1;durP1;ratioP1;P2;durP2;ratioP2
69573;SDS011;62840;52.366;5.980;2023-05-01T00:00:42;4.15;;;1.67;;
69573;SDS011;62840;52.366;5.980;2023-05-01T00:03:08;3.85;;;1.80;;
69573;SDS011;62840;52.366;5.980;2023-05-01T00:05:33;3.70;;;1.53;;
69573;SDS011;62840;52.366;5.980;2023-05-01T00:07:59;4.38;;;2.05;;
69573;SDS011;62840;52.366;5.980;2023-05-01T00:10:25;4.23;;;2.00;;
69573;SDS011;62840;52.366;5.980;2023-05-01T00:12:50;4.13;;;2.05;;
69573;SDS011;62840;52.366;5.980;2023-05-01T00:15:16;5.10;;;2.20;;
69573;SDS011;62840;52.366;5.980;2023-05-01T00:17:45;4.18;;;1.80;;
69573;SDS011;62840;52.366;5.980;2023-05-01T00:20:11;4.57;;;2.05;;
69573;SDS011;62840;52.366;5.980;2023-05-01T00:22:37;5.30;;;2.35;;
69573;SDS011;62840;52.366;5.980;2023-05-01T00:25:02;4.77;;;1.60;;
69573;SDS011;62840;52.366;5.980;2023-05-01T00:27:30;4.10;;;1.63;;
69573;SDS011;62840;52.366;5.980;2023-05-01T00:29:55;3.90;;;1.70;;
69573;SDS011;62840;52.366;5.980;2023-05-01T00:32:21;4.50;;;1.80;;
69573;SDS011;62840;52.366;5.980;2023-05-01T00:34:50;4.87;;;2.20;;
69573;SDS011;62840;52.366;5.980;2023-05-01T00:37:15;5.00;;;2.40;;
69573;SDS011;62840;52.366;5.980;2023-05-01T00:39:42;3.90;;;2.05;;
69573;SDS011;62840;52.366;5.980;2023-05-01T00:42:08;5.23;;;1.90;;
69573;SDS011;62840;52.366;5.980;2023-05-01T00:44:33;5.18;;;1.77;;
69573;SDS011;62840;52.366;5.980;2023-05-01T00:46:59;4.05;;;2.00;;
69573;SDS011;62840;52.366;5.980;2023-05-01T00:49:25;3.70;;;1.70;;
69573;SDS011;62840;52.366;5.980;2023-05-01T00:51:53;4.20;;;1.70;;
69573;SDS011;62840;52.366;5.980;2023-05-01T00:54:19;4.25;;;1.80;;
69573;SDS011;62840;52.366;5.980;2023-05-01T00:56:46;3.77;;;1.77;;
69573;SDS011;62840;52.366;5.980;2023-05-01T00:59:12;5.32;;;1.70;;
69573;SDS011;62840;52.366;5.980;2023-05-01T01:01:38;4.45;;;2.00;;
69573;SDS011;62840;52.366;5.980;2023-05-01T01:04:04;4.22;;;1.70;;
69573;SDS011;62840;52.366;5.980;2023-05-01T01:06:32;4.10;;;1.73;;
69573;SDS011;62840;52.366;5.980;2023-05-01T01:09:16;3.30;;;1.50;;
69573;SDS011;62840;52.366;5.980;2023-05-01T01:12:02;4.63;;;1.80;;
69573;SDS011;62840;52.366;5.980;2023-05-01T01:14:41;4.05;;;1.88;;
69573;SDS011;62840;52.366;5.980;2023-05-01T01:17:16;4.88;;;1.90;;
69573;SDS011;62840;52.366;5.980;2023-05-01T01:22:52;3.90;;;1.67;;
69573;SDS011;62840;52.366;5.980;2023-05-01T01:25:32;4.57;;;1.77;;
69573;SDS011;62840;52.366;5.980;2023-05-01T01:28:23;5.72;;;2.03;;
69573;SDS011;62840;52.366;5.980;2023-05-01T01:31:45;5.20;;;1.92;;
69573;SDS011;62840;52.366;5.980;2023-05-01T01:34:29;3.88;;;1.98;;
69573;SDS011;62840;52.366;5.980;2023-05-01T01:37:01;5.22;;;1.80;;
69573;SDS011;62840;52.366;5.980;2023-05-01T01:39:36;4.75;;;1.83;;
69573;SDS011;62840;52.366;5.980;2023-05-01T01:42:12;5.38;;;2.10;;
69573;SDS011;62840;52.366;5.980;2023-05-01T01:44:50;7.20;;;2.00;;
69573;SDS011;62840;52.366;5.980;2023-05-01T01:47:20;4.25;;;1.88;;
69573;SDS011;62840;52.366;5.980;2023-05-01T01:49:56;4.25;;;2.00;;
69573;SDS011;62840;52.366;5.980;2023-05-01T01:52:27;5.25;;;1.95;;
69573;SDS011;62840;52.366;5.980;2023-05-01T01:54:57;4.88;;;1.88;;
69573;SDS011;62840;52.366;5.980;2023-05-01T01:57:29;4.40;;;2.27;;
69573;SDS011;62840;52.366;5.980;2023-05-01T01:59:56;5.93;;;2.08;;
69573;SDS011;62840;52.366;5.980;2023-05-01T02:02:22;4.80;;;2.08;;
69573;SDS011;62840;52.366;5.980;2023-05-01T02:04:51;7.80;;;2.05;;
69573;SDS011;62840;52.366;5.980;2023-05-01T02:07:22;5.80;;;2.20;;
69573;SDS011;62840;52.366;5.980;2023-05-01T02:09:49;5.33;;;2.20;;
69573;SDS011;62840;52.366;5.980;2023-05-01T02:12:19;5.38;;;2.40;;
69573;SDS011;62840;52.366;5.980;2023-05-01T02:14:48;5.78;;;2.20;;
69573;SDS011;62840;52.366;5.980;2023-05-01T02:17:16;4.68;;;2.00;;
69573;SDS011;62840;52.366;5.980;2023-05-01T02:19:44;4.25;;;1.65;;
69573;SDS011;62840;52.366;5.980;2023-05-01T02:22:14;5.57;;;2.00;;
69573;SDS011;62840;52.366;5.980;2023-05-01T02:24:43;6.00;;;2.03;;
69573;SDS011;62840;52.366;5.980;2023-05-01T02:27:12;8.57;;;2.30;;
69573;SDS011;62840;52.366;5.980;2023-05-01T02:29:45;8.07;;;2.10;;
69573;SDS011;62840;52.366;5.980;2023-05-01T02:32:11;6.72;;;2.20;;
69573;SDS011;62840;52.366;5.980;2023-05-01T02:34:36;5.43;;;2.43;;
69573;SDS011;62840;52.366;5.980;2023-05-01T02:37:02;5.18;;;2.40;;
69573;SDS011;62840;52.366;5.980;2023-05-01T02:39:34;6.05;;;2.13;;
69573;SDS011;62840;52.366;5.980;2023-05-01T02:42:00;5.75;;;2.10;;
69573;SDS011;62840;52.366;5.980;2023-05-01T02:44:29;5.55;;;1.70;;
69573;SDS011;62840;52.366;5.980;2023-05-01T02:47:03;5.03;;;2.00;;
69573;SDS011;62840;52.366;5.980;2023-05-01T02:49:31;4.20;;;1.83;;
69573;SDS011;62840;52.366;5.980;2023-05-01T02:51:59;5.63;;;2.33;;
69573;SDS011;62840;52.366;5.980;2023-05-01T02:54:26;4.40;;;2.08;;
69573;SDS011;62840;52.366;5.980;2023-05-01T02:56:56;4.45;;;2.08;;
69573;SDS011;62840;52.366;5.980;2023-05-01T02:59:22;4.40;;;1.80;;
69573;SDS011;62840;52.366;5.980;2023-05-01T03:01:48;3.90;;;2.00;;
69573;SDS011;62840;52.366;5.980;2023-05-01T03:04:14;5.00;;;2.13;;
69573;SDS011;62840;52.366;5.980;2023-05-01T03:06:39;4.67;;;1.90;;
69573;SDS011;62840;52.366;5.980;2023-05-01T03:09:05;4.70;;;2.00;;
69573;SDS011;62840;52.366;5.980;2023-05-01T03:11:31;4.83;;;1.97;;
69573;SDS011;62840;52.366;5.980;2023-05-01T03:13:59;5.25;;;1.80;;
69573;SDS011;62840;52.366;5.980;2023-05-01T03:16:25;5.68;;;2.28;;
69573;SDS011;62840;52.366;5.980;2023-05-01T03:18:50;5.97;;;2.00;;
69573;SDS011;62840;52.366;5.980;2023-05-01T03:21:16;4.50;;;2.10;;
69573;SDS011;62840;52.366;5.980;2023-05-01T03:23:42;6.53;;;2.07;;
69573;SDS011;62840;52.366;5.980;2023-05-01T03:26:08;5.75;;;2.22;;
69573;SDS011;62840;52.366;5.980;2023-05-01T03:28:33;6.80;;;2.13;;
69573;SDS011;62840;52.366;5.980;2023-05-01T03:31:02;4.75;;;2.15;;
69573;SDS011;62840;52.366;5.980;2023-05-01T03:33:28;4.28;;;1.85;;
69573;SDS011;62840;52.366;5.980;2023-05-01T03:36:00;4.43;;;1.88;;
69573;SDS011;62840;52.366;5.980;2023-05-01T03:38:26;4.15;;;1.83;;
69573;SDS011;62840;52.366;5.980;2023-05-01T03:40:52;5.60;;;2.30;;
69573;SDS011;62840;52.366;5.980;2023-05-01T03:43:18;5.60;;;2.50;;
69573;SDS011;62840;52.366;5.980;2023-05-01T03:45:44;5.20;;;2.37;;
69573;SDS011;62840;52.366;5.980;2023-05-01T03:48:12;5.15;;;2.20;;
69573;SDS011;62840;52.366;5.980;2023-05-01T03:50:38;4.00;;;1.80;;
69573;SDS011;62840;52.366;5.980;2023-05-01T03:53:03;5.13;;;1.90;;
69573;SDS011;62840;52.366;5.980;2023-05-01T03:55:29;5.90;;;2.00;;
69573;SDS011;62840;52.366;5.980;2023-05-01T03:57:55;5.55;;;2.35;;
69573;SDS011;62840;52.366;5.980;2023-05-01T04:00:20;4.33;;;2.00;;
69573;SDS011;62840;52.366;5.980;2023-05-01T04:02:46;6.28;;;2.15;;
69573;SDS011;62840;52.366;5.980;2023-05-01T04:05:14;4.70;;;1.90;;
69573;SDS011;62840;52.366;5.980;2023-05-01T04:07:40;6.85;;;2.22;;
69573;SDS011;62840;52.366;5.980;2023-05-01T04:10:06;6.05;;;2.22;;
69573;SDS011;62840;52.366;5.980;2023-05-01T04:12:33;5.93;;;2.40;;
69573;SDS011;62840;52.366;5.980;2023-05-01T04:14:59;5.40;;;2.60;;
69573;SDS011;62840;52.366;5.980;2023-05-01T04:17:24;6.47;;;2.20;;
69573;SDS011;62840;52.366;5.980;2023-05-01T04:19:50;5.20;;;2.20;;
69573;SDS011;62840;52.366;5.980;2023-05-01T04:22:19;5.72;;;2.38;;
69573;SDS011;62840;52.366;5.980;2023-05-01T04:24:45;5.07;;;2.35;;
69573;SDS011;62840;52.366;5.980;2023-05-01T04:27:11;7.43;;;2.50;;
69573;SDS011;62840;52.366;5.980;2023-05-01T04:29:37;5.53;;;2.72;;
69573;SDS011;62840;52.366;5.980;2023-05-01T04:32:02;5.00;;;2.27;;
69573;SDS011;62840;52.366;5.980;2023-05-01T04:34:29;6.07;;;2.53;;
69573;SDS011;62840;52.366;5.980;2023-05-01T04:36:54;5.73;;;2.27;;
69573;SDS011;62840;52.366;5.980;2023-05-01T04:39:23;4.47;;;2.40;;
69573;SDS011;62840;52.366;5.980;2023-05-01T04:41:49;7.72;;;2.63;;
69573;SDS011;62840;52.366;5.980;2023-05-01T04:44:15;7.20;;;2.87;;
69573;SDS011;62840;52.366;5.980;2023-05-01T04:46:40;5.50;;;2.50;;
69573;SDS011;62840;52.366;5.980;2023-05-01T04:49:06;6.80;;;2.70;;
69573;SDS011;62840;52.366;5.980;2023-05-01T04:51:32;7.13;;;2.58;;
69573;SDS011;62840;52.366;5.980;2023-05-01T04:53:58;6.60;;;2.63;;
69573;SDS011;62840;52.366;5.980;2023-05-01T04:56:26;7.65;;;3.15;;
69573;SDS011;62840;52.366;5.980;2023-05-01T04:58:51;6.82;;;2.58;;
69573;SDS011;62840;52.366;5.980;2023-05-01T05:01:17;5.63;;;2.47;;
69573;SDS011;62840;52.366;5.980;2023-05-01T05:03:43;5.38;;;2.25;;
69573;SDS011;62840;52.366;5.980;2023-05-01T05:06:09;6.47;;;2.60;;
69573;SDS011;62840;52.366;5.980;2023-05-01T05:08:34;7.32;;;2.20;;
69573;SDS011;62840;52.366;5.980;2023-05-01T05:11:00;5.67;;;2.37;;
69573;SDS011;62840;52.366;5.980;2023-05-01T05:13:28;5.38;;;2.70;;
69573;SDS011;62840;52.366;5.980;2023-05-01T05:15:54;5.65;;;2.03;;
69573;SDS011;62840;52.366;5.980;2023-05-01T05:18:20;6.22;;;2.47;;
69573;SDS011;62840;52.366;5.980;2023-05-01T05:20:45;5.10;;;2.63;;
69573;SDS011;62840;52.366;5.980;2023-05-01T05:23:11;8.75;;;2.40;;
69573;SDS011;62840;52.366;5.980;2023-05-01T05:25:37;7.57;;;2.80;;
69573;SDS011;62840;52.366;5.980;2023-05-01T05:28:03;6.00;;;2.28;;
69573;SDS011;62840;52.366;5.980;2023-05-01T05:30:31;9.70;;;2.63;;
69573;SDS011;62840;52.366;5.980;2023-05-01T05:32:57;7.50;;;2.17;;
69573;SDS011;62840;52.366;5.980;2023-05-01T05:35:23;5.80;;;2.13;;
69573;SDS011;62840;52.366;5.980;2023-05-01T05:37:48;7.97;;;2.60;;
69573;SDS011;62840;52.366;5.980;2023-05-01T05:40:14;5.03;;;2.35;;
69573;SDS011;62840;52.366;5.980;2023-05-01T05:42:40;4.93;;;2.38;;
69573;SDS011;62840;52.366;5.980;2023-05-01T05:45:07;5.83;;;2.50;;
69573;SDS011;62840;52.366;5.980;2023-05-01T05:47:36;5.95;;;2.22;;
69573;SDS011;62840;52.366;5.980;2023-05-01T05:50:02;5.35;;;2.78;;
69573;SDS011;62840;52.366;5.980;2023-05-01T05:52:29;4.95;;;2.40;;
69573;SDS011;62840;52.366;5.980;2023-05-01T05:54:55;7.07;;;2.40;;
69573;SDS011;62840;52.366;5.980;2023-05-01T05:57:21;6.65;;;2.70;;
69573;SDS011;62840;52.366;5.980;2023-05-01T05:59:47;4.53;;;2.47;;
69573;SDS011;62840;52.366;5.980;2023-05-01T06:02:12;5.78;;;2.30;;
69573;SDS011;62840;52.366;5.980;2023-05-01T06:04:41;7.70;;;2.60;;
69573;SDS011;62840;52.366;5.980;2023-05-01T06:07:06;8.75;;;2.70;;
69573;SDS011;62840;52.366;5.980;2023-05-01T06:09:32;7.87;;;2.40;;
69573;SDS011;62840;52.366;5.980;2023-05-01T06:11:58;6.72;;;2.15;;
69573;SDS011;62840;52.366;5.980;2023-05-01T06:14:23;5.90;;;2.63;;
69573;SDS011;62840;52.366;5.980;2023-05-01T06:16:49;7.15;;;3.03;;
69573;SDS011;62840;52.366;5.980;2023-05-01T06:19:15;6.10;;;3.22;;
69573;SDS011;62840;52.366;5.980;2023-05-01T06:21:43;8.93;;;3.40;;
69573;SDS011;62840;52.366;5.980;2023-05-01T06:24:09;5.93;;;2.83;;
69573;SDS011;62840;52.366;5.980;2023-05-01T06:26:35;8.27;;;2.80;;
69573;SDS011;62840;52.366;5.980;2023-05-01T06:29:01;7.40;;;3.10;;
69573;SDS011;62840;52.366;5.980;2023-05-01T06:31:26;6.32;;;3.08;;
69573;SDS011;62840;52.366;5.980;2023-05-01T06:33:52;7.60;;;3.20;;
69573;SDS011;62840;52.366;5.980;2023-05-01T06:36:18;6.57;;;3.25;;
69573;SDS011;62840;52.366;5.980;2023-05-01T06:38:46;7.90;;;3.00;;
69573;SDS011;62840;52.366;5.980;2023-05-01T06:41:12;9.65;;;3.55;;
69573;SDS011;62840;52.366;5.980;2023-05-01T06:43:38;8.32;;;3.63;;
69573;SDS011;62840;52.366;5.980;2023-05-01T06:46:07;8.37;;;3.67;;
69573;SDS011;62840;52.366;5.980;2023-05-01T06:48:32;7.50;;;3.60;;
69573;SDS011;62840;52.366;5.980;2023-05-01T06:50:58;8.73;;;3.87;;
69573;SDS011;62840;52.366;5.980;2023-05-01T06:53:24;9.70;;;4.20;;
69573;SDS011;62840;52.366;5.980;2023-05-01T06:55:52;10.43;;;4.13;;
69573;SDS011;62840;52.366;5.980;2023-05-01T06:58:18;10.70;;;4.15;;
69573;SDS011;62840;52.366;5.980;2023-05-01T07:00:44;7.85;;;3.72;;
69573;SDS011;62840;52.366;5.980;2023-05-01T07:03:09;7.27;;;3.90;;
69573;SDS011;62840;52.366;5.980;2023-05-01T07:05:35;10.07;;;3.92;;
69573;SDS011;62840;52.366;5.980;2023-05-01T07:08:01;9.43;;;4.20;;
69573;SDS011;62840;52.366;5.980;2023-05-01T07:10:27;9.52;;;4.30;;
69573;SDS011;62840;52.366;5.980;2023-05-01T07:12:55;7.90;;;3.87;;
69573;SDS011;62840;52.366;5.980;2023-05-01T07:15:22;8.88;;;3.88;;
69573;SDS011;62840;52.366;5.980;2023-05-01T07:17:48;8.75;;;3.75;;
69573;SDS011;62840;52.366;5.980;2023-05-01T07:20:14;7.72;;;3.97;;
69573;SDS011;62840;52.366;5.980;2023-05-01T07:22:40;9.03;;;3.90;;
69573;SDS011;62840;52.366;5.980;2023-05-01T07:25:07;8.48;;;3.83;;
69573;SDS011;62840;52.366;5.980;2023-05-01T07:27:33;7.20;;;3.78;;
69573;SDS011;62840;52.366;5.980;2023-05-01T07:30:02;9.17;;;3.73;;
69573;SDS011;62840;52.366;5.980;2023-05-01T07:32:28;11.02;;;4.25;;
69573;SDS011;62840;52.366;5.980;2023-05-01T07:34:54;12.50;;;4.43;;
69573;SDS011;62840;52.366;5.980;2023-05-01T07:37:20;6.67;;;3.23;;
69573;SDS011;62840;52.366;5.980;2023-05-01T07:39:46;7.53;;;3.67;;
69573;SDS011;62840;52.366;5.980;2023-05-01T07:42:11;8.57;;;3.50;;
69573;SDS011;62840;52.366;5.980;2023-05-01T07:44:37;8.13;;;3.40;;
69573;SDS011;62840;52.366;5.980;2023-05-01T07:47:05;9.17;;;3.63;;
69573;SDS011;62840;52.366;5.980;2023-05-01T07:49:34;13.00;;;4.70;;
69573;SDS011;62840;52.366;5.980;2023-05-01T07:52:01;8.38;;;4.07;;
69573;SDS011;62840;52.366;5.980;2023-05-01T07:54:27;8.23;;;3.63;;
69573;SDS011;62840;52.366;5.980;2023-05-01T07:56:55;9.83;;;3.90;;
69573;SDS011;62840;52.366;5.980;2023-05-01T07:59:21;8.55;;;3.90;;
69573;SDS011;62840;52.366;5.980;2023-05-01T08:01:47;9.90;;;4.10;;
69573;SDS011;62840;52.366;5.980;2023-05-01T08:04:15;8.15;;;3.63;;
69573;SDS011;62840;52.366;5.980;2023-05-01T08:06:41;7.22;;;3.45;;
69573;SDS011;62840;52.366;5.980;2023-05-01T08:09:06;6.53;;;3.83;;
69573;SDS011;62840;52.366;5.980;2023-05-01T08:11:32;9.27;;;4.22;;
69573;SDS011;62840;52.366;5.980;2023-05-01T08:13:58;8.73;;;3.53;;
69573;SDS011;62840;52.366;5.980;2023-05-01T08:16:24;7.82;;;4.35;;
69573;SDS011;62840;52.366;5.980;2023-05-01T08:18:49;7.70;;;3.97;;
69573;SDS011;62840;52.366;5.980;2023-05-01T08:21:18;9.30;;;3.45;;
69573;SDS011;62840;52.366;5.980;2023-05-01T08:23:43;8.35;;;3.63;;
69573;SDS011;62840;52.366;5.980;2023-05-01T08:26:09;8.07;;;3.67;;
69573;SDS011;62840;52.366;5.980;2023-05-01T08:28:35;7.50;;;3.67;;
69573;SDS011;62840;52.366;5.980;2023-05-01T08:31:01;8.77;;;3.60;;
69573;SDS011;62840;52.366;5.980;2023-05-01T08:33:26;7.28;;;3.85;;
69573;SDS011;62840;52.366;5.980;2023-05-01T08:35:52;8.50;;;3.50;;
69573;SDS011;62840;52.366;5.980;2023-05-01T08:38:20;7.57;;;3.50;;
69573;SDS011;62840;52.366;5.980;2023-05-01T08:40:49;7.85;;;3.75;;
69573;SDS011;62840;52.366;5.980;2023-05-01T08:43:17;6.97;;;3.40;;
69573;SDS011;62840;52.366;5.980;2023-05-01T08:45:43;7.50;;;3.63;;
69573;SDS011;62840;52.366;5.980;2023-05-01T08:48:11;6.50;;;3.55;;
69573;SDS011;62840;52.366;5.980;2023-05-01T08:50:41;7.35;;;3.47;;
69573;SDS011;62840;52.366;5.980;2023-05-01T08:53:11;6.63;;;3.35;;
69573;SDS011;62840;52.366;5.980;2023-05-01T08:55:42;8.00;;;3.50;;
69573;SDS011;62840;52.366;5.980;2023-05-01T08:58:09;8.15;;;3.53;;
69573;SDS011;62840;52.366;5.980;2023-05-01T09:00:38;7.90;;;3.40;;
69573;SDS011;62840;52.366;5.980;2023-05-01T09:03:06;7.32;;;3.75;;
69573;SDS011;62840;52.366;5.980;2023-05-01T09:05:36;8.07;;;3.47;;
69573;SDS011;62840;52.366;5.980;2023-05-01T09:08:02;8.95;;;3.67;;
69573;SDS011;62840;52.366;5.980;2023-05-01T09:10:28;7.45;;;3.42;;
69573;SDS011;62840;52.366;5.980;2023-05-01T09:13:00;5.93;;;3.00;;
69573;SDS011;62840;52.366;5.980;2023-05-01T09:15:28;6.37;;;3.10;;
69573;SDS011;62840;52.366;5.980;2023-05-01T09:17:54;7.32;;;3.75;;
69573;SDS011;62840;52.366;5.980;2023-05-01T09:20:24;8.40;;;3.70;;
69573;SDS011;62840;52.366;5.980;2023-05-01T09:22:50;8.85;;;3.67;;
69573;SDS011;62840;52.366;5.980;2023-05-01T09:25:16;6.47;;;3.47;;
69573;SDS011;62840;52.366;5.980;2023-05-01T09:27:42;7.32;;;2.95;;
69573;SDS011;62840;52.366;5.980;2023-05-01T09:30:11;5.75;;;3.17;;
69573;SDS011;62840;52.366;5.980;2023-05-01T09:33:02;7.38;;;2.22;;
69573;SDS011;62840;52.366;5.980;2023-05-01T09:35:29;8.70;;;2.78;;
69573;SDS011;62840;52.366;5.980;2023-05-01T09:37:55;6.47;;;2.90;;
69573;SDS011;62840;52.366;5.980;2023-05-01T09:40:25;4.70;;;2.40;;
69573;SDS011;62840;52.366;5.980;2023-05-01T09:42:52;6.43;;;2.80;;
69573;SDS011;62840;52.366;5.980;2023-05-01T09:45:22;7.23;;;2.77;;
69573;SDS011;62840;52.366;5.980;2023-05-01T09:47:52;6.72;;;2.70;;
69573;SDS011;62840;52.366;5.980;2023-05-01T09:50:33;5.65;;;2.38;;
69573;SDS011;62840;52.366;5.980;2023-05-01T09:52:59;5.70;;;2.78;;
69573;SDS011;62840;52.366;5.980;2023-05-01T09:55:25;6.53;;;2.50;;
69573;SDS011;62840;52.366;5.980;2023-05-01T09:57:51;6.23;;;2.00;;
69573;SDS011;62840;52.366;5.980;2023-05-01T10:00:17;5.72;;;2.50;;
69573;SDS011;62840;52.366;5.980;2023-05-01T10:02:46;5.78;;;2.65;;
69573;SDS011;62840;52.366;5.980;2023-05-01T10:05:13;6.80;;;2.42;;
69573;SDS011;62840;52.366;5.980;2023-05-01T10:07:40;5.90;;;2.10;;
69573;SDS011;62840;52.366;5.980;2023-05-01T10:10:21;5.35;;;2.45;;
69573;SDS011;62840;52.366;5.980;2023-05-01T10:12:47;5.65;;;2.45;;
69573;SDS011;62840;52.366;5.980;2023-05-01T10:15:14;6.45;;;3.03;;
69573;SDS011;62840;52.366;5.980;2023-05-01T10:17:44;7.77;;;2.10;;
69573;SDS011;62840;52.366;5.980;2023-05-01T10:20:10;4.28;;;1.70;;
69573;SDS011;62840;52.366;5.980;2023-05-01T10:22:37;7.30;;;2.63;;
69573;SDS011;62840;52.366;5.980;2023-05-01T10:25:06;7.60;;;1.90;;
69573;SDS011;62840;52.366;5.980;2023-05-01T10:27:33;6.93;;;2.70;;
69573;SDS011;62840;52.366;5.980;2023-05-01T10:29:59;5.93;;;2.60;;
69573;SDS011;62840;52.366;5.980;2023-05-01T10:32:27;5.88;;;2.67;;
69573;SDS011;62840;52.366;5.980;2023-05-01T10:34:56;7.60;;;2.65;;
69573;SDS011;62840;52.366;5.980;2023-05-01T10:37:29;5.57;;;2.30;;
69573;SDS011;62840;52.366;5.980;2023-05-01T10:43:14;6.27;;;2.50;;
69573;SDS011;62840;52.366;5.980;2023-05-01T10:45:43;6.97;;;2.97;;
69573;SDS011;62840;52.366;5.980;2023-05-01T10:48:10;6.32;;;2.33;;
69573;SDS011;62840;52.366;5.980;2023-05-01T10:53:36;5.10;;;1.90;;
69573;SDS011;62840;52.366;5.980;2023-05-01T10:56:02;6.97;;;1.90;;
69573;SDS011;62840;52.366;5.980;2023-05-01T10:59:06;4.82;;;2.00;;
69573;SDS011;62840;52.366;5.980;2023-05-01T11:01:32;5.20;;;2.00;;
69573;SDS011;62840;52.366;5.980;2023-05-01T11:04:02;5.68;;;2.00;;
69573;SDS011;62840;52.366;5.980;2023-05-01T11:06:32;3.70;;;1.80;;
69573;SDS011;62840;52.366;5.980;2023-05-01T11:08:59;5.13;;;2.00;;
69573;SDS011;62840;52.366;5.980;2023-05-01T11:14:11;5.22;;;2.10;;
69573;SDS011;62840;52.366;5.980;2023-05-01T11:16:40;4.27;;;1.90;;
69573;SDS011;62840;52.366;5.980;2023-05-01T11:19:07;5.07;;;2.10;;
69573;SDS011;62840;52.366;5.980;2023-05-01T11:21:38;5.10;;;1.60;;
69573;SDS011;62840;52.366;5.980;2023-05-01T11:24:04;4.00;;;1.75;;
69573;SDS011;62840;52.366;5.980;2023-05-01T11:26:31;5.03;;;1.60;;
69573;SDS011;62840;52.366;5.980;2023-05-01T11:29:01;4.25;;;1.85;;
69573;SDS011;62840;52.366;5.980;2023-05-01T11:31:29;3.95;;;1.80;;
69573;SDS011;62840;52.366;5.980;2023-05-01T11:33:57;3.95;;;1.50;;
69573;SDS011;62840;52.366;5.980;2023-05-01T11:36:24;5.70;;;1.63;;
69573;SDS011;62840;52.366;5.980;2023-05-01T11:38:54;4.37;;;1.90;;
69573;SDS011;62840;52.366;5.980;2023-05-01T11:41:22;4.05;;;1.45;;
69573;SDS011;62840;52.366;5.980;2023-05-01T11:43:49;4.43;;;1.33;;
69573;SDS011;62840;52.366;5.980;2023-05-01T11:46:22;5.78;;;1.60;;
69573;SDS011;62840;52.366;5.980;2023-05-01T11:48:48;3.47;;;1.52;;
69573;SDS011;62840;52.366;5.980;2023-05-01T11:51:14;4.23;;;1.57;;
69573;SDS011;62840;52.366;5.980;2023-05-01T11:53:40;5.35;;;1.60;;
69573;SDS011;62840;52.366;5.980;2023-05-01T11:56:20;4.45;;;2.00;;
69573;SDS011;62840;52.366;5.980;2023-05-01T11:58:46;5.05;;;1.73;;
69573;SDS011;62840;52.366;5.980;2023-05-01T12:01:11;4.90;;;2.25;;
69573;SDS011;62840;52.366;5.980;2023-05-01T12:03:40;3.92;;;1.70;;
69573;SDS011;62840;52.366;5.980;2023-05-01T12:06:07;4.63;;;1.70;;
69573;SDS011;62840;52.366;5.980;2023-05-01T12:08:34;4.43;;;1.83;;
69573;SDS011;62840;52.366;5.980;2023-05-01T12:11:05;5.28;;;1.73;;
69573;SDS011;62840;52.366;5.980;2023-05-01T12:13:35;4.38;;;2.17;;
69573;SDS011;62840;52.366;5.980;2023-05-01T12:16:04;10.52;;;2.95;;
69573;SDS011;62840;52.366;5.980;2023-05-01T12:18:31;6.80;;;2.30;;
69573;SDS011;62840;52.366;5.980;2023-05-01T12:20:57;8.27;;;2.38;;
69573;SDS011;62840;52.366;5.980;2023-05-01T12:23:29;6.07;;;2.58;;
69573;SDS011;62840;52.366;5.980;2023-05-01T12:25:56;5.33;;;2.17;;
69573;SDS011;62840;52.366;5.980;2023-05-01T12:28:22;6.28;;;2.35;;
69573;SDS011;62840;52.366;5.980;2023-05-01T12:30:50;6.13;;;2.30;;
69573;SDS011;62840;52.366;5.980;2023-05-01T12:33:16;7.00;;;2.60;;
69573;SDS011;62840;52.366;5.980;2023-05-01T12:35:44;5.65;;;1.95;;
69573;SDS011;62840;52.366;5.980;2023-05-01T12:38:13;4.90;;;2.05;;
69573;SDS011;62840;52.366;5.980;2023-05-01T12:43:28;4.63;;;2.55;;
69573;SDS011;62840;52.366;5.980;2023-05-01T12:45:58;6.00;;;2.08;;
69573;SDS011;62840;52.366;5.980;2023-05-01T12:48:25;4.30;;;1.90;;
69573;SDS011;62840;52.366;5.980;2023-05-01T12:50:51;4.53;;;2.17;;
69573;SDS011;62840;52.366;5.980;2023-05-01T12:53:18;4.57;;;2.42;;
69573;SDS011;62840;52.366;5.980;2023-05-01T12:55:44;7.28;;;2.67;;
69573;SDS011;62840;52.366;5.980;2023-05-01T12:58:13;6.10;;;2.95;;
69573;SDS011;62840;52.366;5.980;2023-05-01T13:00:42;6.70;;;2.60;;
69573;SDS011;62840;52.366;5.980;2023-05-01T13:03:12;5.78;;;3.00;;
69573;SDS011;62840;52.366;5.980;2023-05-01T13:05:48;6.40;;;2.53;;
69573;SDS011;62840;52.366;5.980;2023-05-01T13:08:21;6.20;;;2.75;;
69573;SDS011;62840;52.366;5.980;2023-05-01T13:10:50;6.32;;;3.15;;
69573;SDS011;62840;52.366;5.980;2023-05-01T13:13:22;5.18;;;2.78;;
69573;SDS011;62840;52.366;5.980;2023-05-01T13:15:52;5.45;;;2.47;;
69573;SDS011;62840;52.366;5.980;2023-05-01T13:18:21;4.72;;;2.40;;
69573;SDS011;62840;52.366;5.980;2023-05-01T13:20:46;5.85;;;3.13;;
69573;SDS011;62840;52.366;5.980;2023-05-01T13:23:12;7.90;;;3.47;;
69573;SDS011;62840;52.366;5.980;2023-05-01T13:25:39;6.88;;;2.80;;
69573;SDS011;62840;52.366;5.980;2023-05-01T13:28:05;6.10;;;2.63;;
69573;SDS011;62840;52.366;5.980;2023-05-01T13:30:32;7.00;;;3.05;;
69573;SDS011;62840;52.366;5.980;2023-05-01T13:32:58;5.20;;;2.47;;
69573;SDS011;62840;52.366;5.980;2023-05-01T13:35:27;4.55;;;2.25;;
69573;SDS011;62840;52.366;5.980;2023-05-01T13:37:55;5.07;;;2.58;;
69573;SDS011;62840;52.366;5.980;2023-05-01T13:40:21;7.13;;;2.47;;
69573;SDS011;62840;52.366;5.980;2023-05-01T13:42:50;5.65;;;2.50;;
69573;SDS011;62840;52.366;5.980;2023-05-01T13:45:17;6.55;;;2.72;;
69573;SDS011;62840;52.366;5.980;2023-05-01T13:47:44;6.40;;;2.80;;
69573;SDS011;62840;52.366;5.980;2023-05-01T13:50:11;6.10;;;2.87;;
69573;SDS011;62840;52.366;5.980;2023-05-01T13:52:41;5.60;;;3.10;;
69573;SDS011;62840;52.366;5.980;2023-05-01T13:55:08;5.65;;;2.95;;
69573;SDS011;62840;52.366;5.980;2023-05-01T13:57:35;6.45;;;2.78;;
69573;SDS011;62840;52.366;5.980;2023-05-01T14:00:01;6.03;;;3.30;;
69573;SDS011;62840;52.366;5.980;2023-05-01T14:02:32;6.80;;;3.08;;
69573;SDS011;62840;52.366;5.980;2023-05-01T14:04:57;8.05;;;3.33;;
69573;SDS011;62840;52.366;5.980;2023-05-01T14:07:23;8.00;;;3.40;;
69573;SDS011;62840;52.366;5.980;2023-05-01T14:09:53;7.15;;;3.05;;
69573;SDS011;62840;52.366;5.980;2023-05-01T14:12:20;6.85;;;3.20;;
69573;SDS011;62840;52.366;5.980;2023-05-01T14:14:50;7.18;;;2.67;;
69573;SDS011;62840;52.366;5.980;2023-05-01T14:17:16;6.47;;;2.85;;
69573;SDS011;62840;52.366;5.980;2023-05-01T14:19:42;5.73;;;2.90;;
69573;SDS011;62840;52.366;5.980;2023-05-01T14:22:08;5.32;;;2.22;;
69573;SDS011;62840;52.366;5.980;2023-05-01T14:24:34;4.83;;;2.20;;
69573;SDS011;62840;52.366;5.980;2023-05-01T14:27:03;6.75;;;3.00;;
69573;SDS011;62840;52.366;5.980;2023-05-01T14:29:30;7.13;;;2.70;;
69573;SDS011;62840;52.366;5.980;2023-05-01T14:32:00;8.80;;;2.90;;
69573;SDS011;62840;52.366;5.980;2023-05-01T14:34:27;9.23;;;2.95;;
69573;SDS011;62840;52.366;5.980;2023-05-01T14:36:53;11.13;;;3.00;;
69573;SDS011;62840;52.366;5.980;2023-05-01T14:39:19;8.02;;;2.72;;
69573;SDS011;62840;52.366;5.980;2023-05-01T14:41:45;7.60;;;3.38;;
69573;SDS011;62840;52.366;5.980;2023-05-01T14:44:15;7.97;;;3.88;;
69573;SDS011;62840;52.366;5.980;2023-05-01T14:46:44;8.55;;;3.80;;
69573;SDS011;62840;52.366;5.980;2023-05-01T14:49:16;7.25;;;3.30;;
69573;SDS011;62840;52.366;5.980;2023-05-01T14:51:43;8.55;;;3.17;;
69573;SDS011;62840;52.366;5.980;2023-05-01T14:54:08;9.02;;;4.50;;
69573;SDS011;62840;52.366;5.980;2023-05-01T14:56:34;8.23;;;4.00;;
69573;SDS011;62840;52.366;5.980;2023-05-01T14:59:00;6.73;;;3.57;;
69573;SDS011;62840;52.366;5.980;2023-05-01T15:01:28;9.23;;;4.18;;
69573;SDS011;62840;52.366;5.980;2023-05-01T15:03:54;7.00;;;3.90;;
69573;SDS011;62840;52.366;5.980;2023-05-01T15:06:20;9.13;;;4.18;;